Time;durP1;ratioP1;P1;durP2;ratioP2;P2;SDS_P1;SDS_P2;PMS_P1;PMS_P2;Temp;Humidity;BMP_temperature;BMP_pressure;BME280_temperature;BME280_humidity;BME280_pressure;Samples;Min_cycle;Max_cycle;Signal;HPM_P1;HPM_P2
2023/05/28 00:01:46;;;;;;;33.15;17.45;;;;;;;13.74;82.69;101943.72;5089016;28;20033;-72
2023/05/28 00:04:12;;;;;;;38.47;18.85;;;;;;;13.70;82.90;101947.81;5089040;28;20031;-72
2023/05/28 00:06:37;;;;;;;43.10;22.08;;;;;;;13.57;83.98;101939.63;5089501;28;20040;-72
2023/05/28 00:09:02;;;;;;;41.05;19.25;;;;;;;13.48;86.70;101956.84;5089063;28;20032;-72
2023/05/28 00:11:28;;;;;;;33.55;18.73;;;;;;;13.33;87.02;101946.16;5088962;28;20039;-72
2023/05/28 00:13:53;;;;;;;33.38;15.38;;;;;;;13.25;87.21;101938.19;5088930;28;20483;-72
2023/05/28 00:16:19;;;;;;;33.00;16.77;;;;;;;13.19;86.93;101933.59;5088979;28;20391;-72
2023/05/28 00:18:44;;;;;;;36.83;17.30;;;;;;;13.16;88.27;101930.25;5088889;28;20101;-72
2023/05/28 00:21:11;;;;;;;33.55;16.48;;;;;;;13.19;87.90;101930.91;5087962;28;20085;-72
2023/05/28 00:23:37;;;;;;;36.92;19.30;;;;;;;13.27;87.68;101936.19;5091299;28;20122;-72
2023/05/28 00:26:02;;;;;;;37.15;18.80;;;;;;;13.24;88.53;101933.88;5092559;28;20497;-72
2023/05/28 00:28:28;;;;;;;31.55;15.52;;;;;;;13.20;88.60;101935.25;5093116;28;20387;-72
2023/05/28 00:30:53;;;;;;;28.63;13.52;;;;;;;12.99;90.38;101930.66;5092737;28;20474;-72
2023/05/28 00:33:18;;;;;;;23.80;11.30;;;;;;;12.88;91.09;101929.28;5092586;28;20027;-72
2023/05/28 00:35:44;;;;;;;30.70;11.75;;;;;;;12.71;91.65;101920.63;5092875;28;20119;-72
2023/05/28 00:38:09;;;;;;;22.60;11.55;;;;;;;12.75;91.63;101937.13;5092740;28;20047;-72
2023/05/28 00:40:34;;;;;;;22.73;11.30;;;;;;;12.63;91.83;101936.75;5092602;28;20455;-72
2023/05/28 00:43:00;;;;;;;21.52;10.30;;;;;;;12.58;92.19;101937.31;5092651;28;20024;-72
2023/05/28 00:45:25;;;;;;;18.83;9.43;;;;;;;12.61;93.46;101944.13;5091442;28;20034;-72
2023/05/28 00:47:51;;;;;;;20.23;10.15;;;;;;;12.64;92.69;101949.13;5092761;28;20439;-72
2023/05/28 00:50:17;;;;;;;19.75;9.10;;;;;;;12.67;91.43;101954.94;5092191;28;20056;-72
2023/05/28 00:52:45;;;;;;;16.15;7.97;;;;;;;12.71;90.59;101948.19;5092429;28;20402;-72
2023/05/28 00:55:15;;;;;;;18.02;7.57;;;;;;;12.76;89.74;101939.63;5092366;28;20028;-72
2023/05/28 00:57:41;;;;;;;18.55;8.40;;;;;;;12.78;89.13;101944.78;5092525;28;20027;-72
2023/05/28 01:00:08;;;;;;;16.27;8.00;;;;;;;12.85;88.85;101945.72;5092364;28;20052;-72
2023/05/28 01:02:34;;;;;;;15.57;6.72;;;;;;;12.84;88.40;101942.22;5092326;28;20042;-72
2023/05/28 01:04:59;;;;;;;17.80;8.23;;;;;;;12.84;88.36;101949.41;5092298;28;20032;-72
2023/05/28 01:07:25;;;;;;;20.75;8.35;;;;;;;12.84;88.07;101942.22;5092239;28;20039;-72
2023/05/28 01:09:50;;;;;;;20.48;8.25;;;;;;;12.85;87.97;101938.50;5092034;28;20059;-72
2023/05/28 01:12:16;;;;;;;15.63;6.78;;;;;;;12.81;88.23;101931.88;5092118;28;20122;-72
2023/05/28 01:14:42;;;;;;;14.15;6.93;;;;;;;12.78;88.51;101936.75;5092087;28;20032;-72
2023/05/28 01:17:08;;;;;;;15.52;6.65;;;;;;;12.70;87.73;101925.09;5091975;28;20032;-72
2023/05/28 01:19:33;;;;;;;14.80;7.05;;;;;;;12.75;88.00;101939.81;5090571;28;20036;-72
2023/05/28 01:22:03;;;;;;;18.13;7.63;;;;;;;12.72;88.03;101938.31;5091889;28;20107;-72
2023/05/28 01:24:31;;;;;;;18.25;8.82;;;;;;;12.68;88.09;101937.00;5091391;28;20487;-72
2023/05/28 01:26:57;;;;;;;13.80;6.82;;;;;;;12.67;88.28;101932.69;5091646;28;20464;-72
2023/05/28 01:29:22;;;;;;;16.52;7.25;;;;;;;12.68;88.98;101940.53;5090434;28;20156;-72
2023/05/28 01:31:48;;;;;;;20.13;8.43;;;;;;;12.53;88.45;101917.47;5091720;28;20141;-72
2023/05/28 01:34:14;;;;;;;16.77;7.40;;;;;;;12.63;88.34;101937.59;5090984;28;20032;-72
2023/05/28 01:36:53;;;;;;;17.10;7.07;;;;;;;12.61;87.99;101936.09;5090569;28;20063;-72
2023/05/28 01:39:20;;;;;;;21.48;7.95;;;;;;;12.58;88.60;101937.31;5091846;28;20119;-72
2023/05/28 01:41:47;;;;;;;13.85;6.75;;;;;;;12.53;88.69;101936.19;5091579;28;20042;-72
2023/05/28 01:44:15;;;;;;;18.58;7.63;;;;;;;12.46;89.07;101936.91;5091378;28;20436;-72
2023/05/28 01:46:42;;;;;;;22.52;7.40;;;;;;;12.53;88.84;101949.56;5091452;28;20027;-72
2023/05/28 01:49:10;;;;;;;16.25;6.07;;;;;;;12.52;88.80;101946.03;5091580;28;20036;-72
2023/05/28 01:51:36;;;;;;;14.70;7.57;;;;;;;12.46;89.23;101944.09;5089664;28;20055;-72
2023/05/28 01:54:01;;;;;;;13.80;7.40;;;;;;;12.40;89.21;101945.66;5091304;28;20032;-72
2023/05/28 01:56:27;;;;;;;14.23;6.28;;;;;;;12.32;90.06;101944.94;5091536;28;20493;-72
2023/05/28 01:58:52;;;;;;;16.90;7.60;;;;;;;12.26;89.24;101930.41;5091334;28;20504;-72
2023/05/28 02:01:35;;;;;;;15.85;6.82;;;;;;;12.24;89.50;101932.44;5091306;28;20020;-72
2023/05/28 02:04:01;;;;;;;15.25;7.22;;;;;;;12.16;90.68;101929.84;5091001;28;20030;-72
2023/05/28 02:06:29;;;;;;;16.60;5.88;;;;;;;12.15;89.70;101934.34;5091180;28;20032;-72
2023/05/28 02:08:55;;;;;;;23.00;7.30;;;;;;;12.15;89.50;101931.66;5091075;28;20107;-72
2023/05/28 02:11:21;;;;;;;13.95;5.88;;;;;;;12.10;89.64;101933.22;5091058;28;20046;-72
2023/05/28 02:13:48;;;;;;;12.82;6.05;;;;;;;12.03;89.61;101925.13;5089776;28;20066;-72
2023/05/28 02:16:17;;;;;;;12.63;6.40;;;;;;;12.10;89.51;101911.84;5090926;28;20039;-72
2023/05/28 02:18:43;;;;;;;15.85;6.60;;;;;;;12.10;89.66;101917.19;5090710;28;20501;-72
2023/05/28 02:21:09;;;;;;;12.93;5.30;;;;;;;12.07;89.59;101918.38;5090625;28;20145;-72
2023/05/28 02:23:35;;;;;;;14.90;6.78;;;;;;;12.07;89.49;101907.69;5090786;28;20060;-72
2023/05/28 02:26:00;;;;;;;13.82;5.75;;;;;;;12.11;89.54;101913.50;5090597;28;20447;-72
2023/05/28 02:28:26;;;;;;;18.00;5.70;;;;;;;12.07;89.71;101913.84;5090516;28;20085;-72
2023/05/28 02:30:51;;;;;;;12.38;5.18;;;;;;;12.07;89.39;101907.69;5090502;28;20036;-72
2023/05/28 02:33:17;;;;;;;16.42;5.88;;;;;;;12.04;89.52;101908.03;5090704;28;20372;-72
2023/05/28 02:35:42;;;;;;;15.77;6.35;;;;;;;12.02;89.67;101904.72;5090391;28;20390;-72
2023/05/28 02:38:08;;;;;;;15.10;6.25;;;;;;;11.97;90.15;101902.59;5090356;28;20221;-72
2023/05/28 02:40:33;;;;;;;19.13;7.28;;;;;;;11.91;90.12;101908.66;5090284;28;20479;-72
2023/05/28 02:42:58;;;;;;;11.20;5.78;;;;;;;11.90;90.43;101917.69;5090501;28;20034;-72
2023/05/28 02:45:24;;;;;;;14.80;6.05;;;;;;;11.79;90.76;101910.06;5090308;28;20027;-72
2023/05/28 02:47:49;;;;;;;13.27;6.40;;;;;;;11.79;91.55;101918.91;5090269;28;20553;-72
2023/05/28 02:50:15;;;;;;;15.43;6.18;;;;;;;11.71;91.94;101910.09;5089634;28;20595;-72
2023/05/28 02:52:40;;;;;;;15.80;6.35;;;;;;;11.73;92.05;101921.44;5072315;28;20530;-72
2023/05/28 02:55:06;;;;;;;14.73;6.38;;;;;;;11.72;91.97;101925.16;5090132;28;20031;-71
2023/05/28 02:57:31;;;;;;;16.92;7.60;;;;;;;11.68;92.52;101926.50;5090018;28;20039;-71
2023/05/28 02:59:57;;;;;;;16.27;5.95;;;;;;;11.67;92.63;101922.16;5090151;28;20035;-71
2023/05/28 03:02:22;;;;;;;12.30;5.65;;;;;;;11.63;92.37;101927.03;5089881;28;20020;-71
2023/05/28 03:04:47;;;;;;;13.82;5.18;;;;;;;11.61;92.80;101918.38;5089914;28;20529;-71
2023/05/28 03:07:13;;;;;;;16.83;6.55;;;;;;;11.52;93.18;101922.91;5089937;28;20067;-71
2023/05/28 03:09:38;;;;;;;16.70;6.93;;;;;;;11.50;93.72;101929.44;5089792;28;20032;-71
2023/05/28 03:12:04;;;;;;;15.43;6.05;;;;;;;11.48;94.14;101921.63;5089801;28;20038;-71
2023/05/28 03:14:30;;;;;;;14.05;6.20;;;;;;;11.48;93.73;101926.97;5089711;28;20036;-71
2023/05/28 03:16:55;;;;;;;13.45;6.15;;;;;;;11.49;93.82;101925.94;5089709;28;20035;-71
2023/05/28 03:19:21;;;;;;;17.15;6.85;;;;;;;11.49;94.29;101925.13;5089616;28;20039;-71
2023/05/28 03:21:46;;;;;;;13.40;6.13;;;;;;;11.46;94.59;101926.31;5089731;28;20020;-71
2023/05/28 03:24:11;;;;;;;11.75;5.80;;;;;;;11.47;94.82;101921.78;5089667;28;20040;-71
2023/05/28 03:26:37;;;;;;;17.55;7.68;;;;;;;11.47;94.38;101922.63;5089466;28;20382;-71
2023/05/28 03:29:03;;;;;;;21.17;6.95;;;;;;;11.48;94.62;101928.81;5089568;28;20027;-71
2023/05/28 03:31:29;;;;;;;15.57;5.13;;;;;;;11.47;94.66;101924.47;5089748;28;20069;-71
2023/05/28 03:33:55;;;;;;;13.82;5.60;;;;;;;11.47;94.99;101922.63;5089376;28;20056;-71
2023/05/28 03:36:21;;;;;;;15.50;5.65;;;;;;;11.45;95.47;101921.13;5089440;28;20433;-71
2023/05/28 03:38:47;;;;;;;14.30;5.75;;;;;;;11.43;95.49;101924.00;5089500;28;20035;-71
2023/05/28 03:41:13;;;;;;;12.65;6.10;;;;;;;11.40;95.59;101922.50;5089203;28;20024;-71
2023/05/28 03:43:38;;;;;;;17.25;6.47;;;;;;;11.39;96.24;101918.16;5089244;28;20487;-71
2023/05/28 03:46:03;;;;;;;13.13;5.80;;;;;;;11.37;96.02;101932.69;5089267;28;20032;-71
2023/05/28 03:48:29;;;;;;;14.13;6.13;;;;;;;11.33;96.29;101931.38;5089160;28;20042;-71
2023/05/28 03:50:54;;;;;;;13.73;5.65;;;;;;;11.36;96.56;101928.34;5089162;28;20048;-71
2023/05/28 03:53:19;;;;;;;16.58;6.82;;;;;;;11.35;97.24;101935.53;5089143;28;20081;-71
2023/05/28 03:55:45;;;;;;;11.50;6.53;;;;;;;11.29;97.90;101922.03;5089253;28;20042;-71
2023/05/28 03:58:14;;;;;;;18.02;6.88;;;;;;;11.31;97.49;101917.38;5088690;28;20053;-71
2023/05/28 04:00:39;;;;;;;15.70;6.78;;;;;;;11.40;97.71;101935.84;5089062;28;20020;-71
2023/05/28 04:03:05;;;;;;;23.52;7.93;;;;;;;11.36;97.56;101928.34;5088953;28;20393;-71
2023/05/28 04:05:30;;;;;;;15.23;6.70;;;;;;;11.48;97.95;101936.81;5089112;28;20088;-71
2023/05/28 04:07:56;;;;;;;21.65;6.03;;;;;;;11.48;98.12;101926.97;5088845;28;20058;-71
2023/05/28 04:10:21;;;;;;;19.00;6.35;;;;;;;11.50;97.79;101916.94;5070947;28;20486;-71
2023/05/28 04:12:46;;;;;;;13.77;6.07;;;;;;;11.58;97.75;101938.25;5088952;28;20028;-71
2023/05/28 04:15:12;;;;;;;15.57;5.65;;;;;;;11.62;98.17;101936.06;5088944;28;20024;-71
2023/05/28 04:17:37;;;;;;;13.60;5.93;;;;;;;11.59;98.58;101933.75;5088693;28;20036;-71
2023/05/28 04:20:06;;;;;;;15.18;6.10;;;;;;;11.66;98.56;101940.06;5089152;28;20036;-71
2023/05/28 04:22:31;;;;;;;14.65;5.75;;;;;;;11.72;99.10;101949.19;5089020;28;20142;-71
2023/05/28 04:24:56;;;;;;;18.88;6.72;;;;;;;11.77;98.89;101953.00;5087288;28;20128;-71
2023/05/28 04:27:23;;;;;;;14.88;6.25;;;;;;;11.83;98.87;101944.25;5088777;28;20114;-71
2023/05/28 04:29:48;;;;;;;16.95;8.30;;;;;;;11.90;98.76;101948.94;5088584;28;20028;-71
2023/05/28 04:32:14;;;;;;;17.25;7.95;;;;;;;11.95;98.54;101947.41;5088667;28;20035;-71
2023/05/28 04:34:42;;;;;;;18.80;6.47;;;;;;;12.01;98.74;101952.03;5088519;28;20035;-71
2023/05/28 04:37:08;;;;;;;15.32;7.60;;;;;;;12.05;98.77;101956.00;5088683;28;20032;-71
2023/05/28 04:39:34;;;;;;;15.32;5.85;;;;;;;12.11;99.12;101961.66;5088757;28;20114;-71
2023/05/28 04:42:03;;;;;;;14.65;5.90;;;;;;;12.18;99.01;101957.22;5087400;28;20020;-71
2023/05/28 04:44:30;;;;;;;18.70;6.63;;;;;;;12.22;99.58;101958.53;5088510;28;20337;-71
2023/05/28 04:46:58;;;;;;;17.75;5.75;;;;;;;12.29;99.01;101959.50;5088802;28;20481;-71
2023/05/28 04:49:24;;;;;;;16.95;5.82;;;;;;;12.33;98.79;101951.94;5088560;28;20118;-71
2023/05/28 04:51:49;;;;;;;17.30;6.28;;;;;;;12.39;98.87;101952.03;5088677;28;20123;-71
2023/05/28 04:54:15;;;;;;;19.52;7.15;;;;;;;12.43;98.29;101956.00;5088482;28;20024;-71
2023/05/28 04:56:40;;;;;;;16.42;6.22;;;;;;;12.47;98.01;101957.31;5088656;28;20128;-71
2023/05/28 04:59:09;;;;;;;17.45;7.80;;;;;;;12.54;98.25;101953.91;5088533;28;20086;-71
2023/05/28 05:01:35;;;;;;;15.20;6.70;;;;;;;12.60;99.04;101959.38;5088461;28;20861;-71
2023/05/28 05:04:01;;;;;;;14.63;6.60;;;;;;;12.67;97.67;101957.59;5087506;28;20070;-71
2023/05/28 05:06:26;;;;;;;17.80;7.72;;;;;;;12.77;97.96;101956.50;5088701;28;20455;-71
2023/05/28 05:08:53;;;;;;;18.20;7.72;;;;;;;12.87;97.20;101959.75;5088846;28;20032;-71
2023/05/28 05:11:19;;;;;;;19.83;6.63;;;;;;;12.93;96.97;101956.31;5091418;28;20206;-71
2023/05/28 05:13:44;;;;;;;18.40;8.23;;;;;;;12.99;96.90;101958.25;5092335;28;20126;-71
2023/05/28 05:16:10;;;;;;;14.82;7.13;;;;;;;13.08;96.59;101959.84;5092381;28;20020;-71
2023/05/28 05:18:35;;;;;;;15.07;6.30;;;;;;;13.15;95.58;101962.59;5092286;28;20028;-71
2023/05/28 05:21:00;;;;;;;15.73;7.70;;;;;;;13.20;96.37;101959.34;5090947;28;20028;-71
2023/05/28 05:23:26;;;;;;;19.02;7.60;;;;;;;13.19;96.32;101950.50;5092097;28;20028;-71
2023/05/28 05:25:52;;;;;;;17.38;7.25;;;;;;;13.29;95.61;101958.28;5092128;28;20039;-71
2023/05/28 05:28:17;;;;;;;18.48;7.18;;;;;;;13.39;94.30;101958.81;5091940;28;20035;-71
2023/05/28 05:30:43;;;;;;;16.85;8.13;;;;;;;13.53;95.24;101962.47;5091885;28;20356;-71
2023/05/28 05:33:08;;;;;;;18.30;7.43;;;;;;;13.63;93.65;101965.69;5091969;28;20043;-71
2023/05/28 05:35:33;;;;;;;18.50;8.13;;;;;;;13.69;94.13;101966.78;5092055;28;20028;-71
2023/05/28 05:37:59;;;;;;;18.25;7.20;;;;;;;13.77;93.56;101969.31;5091604;28;20548;-71
2023/05/28 05:40:24;;;;;;;16.27;7.28;;;;;;;13.83;92.78;101968.56;5091770;28;20043;-71
2023/05/28 05:42:49;;;;;;;18.33;7.43;;;;;;;13.90;92.66;101982.03;5091677;28;20024;-71
2023/05/28 05:45:15;;;;;;;16.02;7.07;;;;;;;13.88;93.21;101968.81;5091606;28;20039;-71
2023/05/28 05:47:40;;;;;;;15.55;7.22;;;;;;;14.06;92.33;101978.28;5091433;28;20028;-71
2023/05/28 05:50:06;;;;;;;16.48;6.43;;;;;;;14.14;90.09;101986.19;5091468;28;20394;-71
2023/05/28 05:52:31;;;;;;;17.40;6.32;;;;;;;14.19;91.29;101989.97;5091571;28;20036;-71
2023/05/28 05:54:57;;;;;;;16.98;6.57;;;;;;;14.29;91.69;101986.97;5091388;28;20039;-71
2023/05/28 05:57:23;;;;;;;20.30;8.65;;;;;;;14.40;89.57;101983.75;5089941;28;20101;-71
2023/05/28 05:59:49;;;;;;;16.67;7.13;;;;;;;14.55;88.50;101985.56;5091556;28;20032;-71
2023/05/28 06:02:14;;;;;;;15.55;5.97;;;;;;;14.71;86.73;101979.06;5091124;28;20020;-71
2023/05/28 06:04:40;;;;;;;15.00;5.60;;;;;;;14.78;86.16;101979.94;5091297;28;20379;-71
2023/05/28 06:07:06;;;;;;;15.85;7.03;;;;;;;14.84;87.98;101984.50;5089985;28;20097;-71
2023/05/28 06:09:33;;;;;;;19.52;7.03;;;;;;;14.98;86.84;101983.53;5091232;28;20093;-71
2023/05/28 06:11:59;;;;;;;19.10;8.65;;;;;;;15.03;86.77;101991.03;5091075;28;20119;-71
2023/05/28 06:14:27;;;;;;;17.02;6.60;;;;;;;15.02;86.29;101990.19;5090921;28;20035;-71
2023/05/28 06:16:52;;;;;;;20.05;7.32;;;;;;;15.02;86.86;101989.38;5091036;28;20364;-71
2023/05/28 06:19:18;;;;;;;15.10;6.78;;;;;;;15.04;85.83;101987.31;5090997;28;20032;-71
2023/05/28 06:21:43;;;;;;;14.52;6.47;;;;;;;15.11;85.06;101982.78;5089326;28;20024;-71
2023/05/28 06:24:09;;;;;;;16.58;6.93;;;;;;;15.18;85.52;101983.66;5089766;28;20393;-71
2023/05/28 06:26:34;;;;;;;14.63;6.70;;;;;;;15.27;86.23;101971.72;5089603;28;20956;-71
2023/05/28 06:28:59;;;;;;;14.85;6.20;;;;;;;15.42;84.48;101971.56;5090823;28;20059;-71
2023/05/28 06:31:25;;;;;;;15.60;6.60;;;;;;;15.67;84.76;101982.63;5090765;28;20039;-71
2023/05/28 06:33:50;;;;;;;17.58;6.20;;;;;;;15.69;81.53;101975.22;5090803;28;20407;-71
2023/05/28 06:36:16;;;;;;;19.20;9.00;;;;;;;15.84;82.64;101983.09;5089090;28;20064;-72
2023/05/28 06:38:42;;;;;;;16.75;6.72;;;;;;;15.97;80.46;101982.28;5090747;28;20032;-71
2023/05/28 06:41:07;;;;;;;13.57;6.60;;;;;;;16.11;80.35;101981.28;5090482;28;20069;-71
2023/05/28 06:43:33;;;;;;;19.23;7.45;;;;;;;16.17;79.67;101969.69;5090533;28;20127;-71
2023/05/28 06:45:58;;;;;;;15.05;5.55;;;;;;;16.20;80.20;101969.28;5090546;28;20069;-71
2023/05/28 06:48:23;;;;;;;16.17;6.75;;;;;;;16.38;80.54;101968.66;5088804;28;20036;-71
2023/05/28 06:50:49;;;;;;;13.85;5.53;;;;;;;16.49;77.11;101971.75;5089905;28;20054;-71
2023/05/28 06:53:14;;;;;;;17.35;7.03;;;;;;;16.62;76.07;101985.22;5090440;28;20059;-71
2023/05/28 06:55:39;;;;;;;18.45;6.65;;;;;;;16.75;76.88;101985.19;5090228;28;20028;-71
2023/05/28 06:58:05;;;;;;;18.83;7.25;;;;;;;16.90;74.74;101978.75;5090250;28;20032;-72
2023/05/28 07:00:30;;;;;;;15.30;6.10;;;;;;;17.03;74.06;101981.44;5090266;28;20398;-72
2023/05/28 07:02:56;;;;;;;17.52;6.25;;;;;;;17.17;73.92;101977.66;5089313;28;20056;-71
2023/05/28 07:05:21;;;;;;;13.13;5.57;;;;;;;17.24;74.41;101972.25;5089893;28;20040;-71
2023/05/28 07:07:47;;;;;;;16.63;5.65;;;;;;;17.36;72.56;101981.31;5090243;28;20510;-71
2023/05/28 07:10:12;;;;;;;12.18;4.97;;;;;;;17.35;72.42;101981.53;5089883;28;20042;-71
2023/05/28 07:12:37;;;;;;;13.18;6.45;;;;;;;17.34;73.27;101983.38;5089160;28;20024;-71
2023/05/28 07:15:06;;;;;;;14.65;6.90;;;;;;;17.42;72.62;101979.63;5090192;28;20035;-71
2023/05/28 07:17:32;;;;;;;12.45;5.20;;;;;;;17.51;72.51;101981.88;5088625;28;20036;-71
2023/05/28 07:19:57;;;;;;;12.40;5.80;;;;;;;17.59;71.29;101974.56;5089973;28;20028;-71
2023/05/28 07:22:24;;;;;;;15.43;6.50;;;;;;;17.64;70.13;101985.53;5089826;28;20069;-71
2023/05/28 07:24:49;;;;;;;20.40;7.43;;;;;;;17.61;68.58;101985.97;5089762;28;20517;-71
2023/05/28 07:27:15;;;;;;;15.95;5.68;;;;;;;17.69;69.29;101981.16;5089581;28;20122;-71
2023/05/28 07:29:41;;;;;;;14.43;5.13;;;;;;;17.80;70.26;101986.94;5089910;28;20028;-71
2023/05/28 07:32:06;;;;;;;19.25;6.55;;;;;;;17.89;69.59;101991.00;5089126;28;20043;-71
2023/05/28 07:34:31;;;;;;;15.35;6.93;;;;;;;17.98;69.59;101983.50;5089534;28;20039;-71
2023/05/28 07:36:57;;;;;;;11.25;5.03;;;;;;;18.11;66.12;101994.22;5089823;28;20542;-71
2023/05/28 07:39:22;;;;;;;14.25;5.72;;;;;;;18.22;67.80;102001.59;5089602;28;20024;-72
2023/05/28 07:41:48;;;;;;;14.07;5.03;;;;;;;18.34;68.13;101989.03;5089772;28;20028;-72
2023/05/28 07:44:15;;;;;;;13.27;4.72;;;;;;;18.42;64.66;101998.75;5089591;28;20506;-72
2023/05/28 07:46:40;;;;;;;12.70;5.85;;;;;;;18.37;65.08;101998.56;5088222;28;20042;-72
2023/05/28 07:49:05;;;;;;;13.63;5.43;;;;;;;18.33;65.27;101994.66;5089313;28;20040;-72
2023/05/28 07:51:32;;;;;;;13.18;5.18;;;;;;;18.36;64.79;101988.81;5089122;28;20105;-72
2023/05/28 07:53:58;;;;;;;13.70;5.47;;;;;;;18.45;66.03;101994.78;5089305;28;20105;-72
2023/05/28 07:56:24;;;;;;;11.73;4.88;;;;;;;18.46;64.60;101994.53;5088760;28;20069;-72
2023/05/28 07:58:49;;;;;;;16.17;5.20;;;;;;;18.61;66.54;101996.91;5089616;28;20036;-72
2023/05/28 08:01:15;;;;;;;11.00;4.35;;;;;;;18.77;64.35;101993.66;5089147;28;20111;-72
2023/05/28 08:03:41;;;;;;;13.90;4.93;;;;;;;18.84;61.11;101990.91;5089232;28;20483;-72
2023/05/28 08:06:06;;;;;;;8.63;3.20;;;;;;;18.96;60.76;101986.38;5089134;28;20024;-72
2023/05/28 08:08:32;;;;;;;10.00;4.95;;;;;;;18.96;60.87;101994.50;5088858;28;20463;-72
2023/05/28 08:10:58;;;;;;;10.85;5.15;;;;;;;19.00;60.74;101989.47;5088128;28;20129;-71
2023/05/28 08:13:23;;;;;;;9.15;4.85;;;;;;;19.09;62.32;101996.22;5088760;28;20032;-71
2023/05/28 08:15:48;;;;;;;11.52;3.97;;;;;;;19.37;59.57;101995.69;5089254;28;20104;-72
2023/05/28 08:18:14;;;;;;;13.68;4.30;;;;;;;20.55;56.98;101979.81;5087818;28;20036;-71
2023/05/28 08:20:39;;;;;;;13.27;3.53;;;;;;;22.73;52.51;101986.91;5088510;28;20476;-71
2023/05/28 08:23:05;;;;;;;13.63;3.67;;;;;;;24.23;47.46;101995.69;5088994;28;20031;-71
2023/05/28 08:25:31;;;;;;;11.32;4.50;;;;;;;25.03;42.94;102001.97;5089094;28;20028;-71
2023/05/28 08:27:57;;;;;;;11.20;4.82;;;;;;;25.46;41.74;101996.44;5089150;28;20040;-71
2023/05/28 08:30:22;;;;;;;11.98;4.75;;;;;;;26.13;41.14;101995.47;5088844;28;20028;-71
2023/05/28 08:32:47;;;;;;;11.15;4.05;;;;;;;26.40;41.95;101994.34;5087384;28;20040;-71
2023/05/28 08:35:13;;;;;;;13.45;4.10;;;;;;;26.50;40.17;101993.53;5088801;28;20028;-72
2023/05/28 08:37:38;;;;;;;14.65;5.18;;;;;;;26.77;40.55;101983.06;5089027;28;20036;-71
2023/05/28 08:40:08;;;;;;;13.60;4.38;;;;;;;27.25;39.33;101986.22;5089052;28;20105;-71
2023/05/28 08:42:34;;;;;;;8.77;4.40;;;;;;;27.45;37.83;101990.75;5088802;28;20032;-71
2023/05/28 08:44:59;;;;;;;10.65;3.95;;;;;;;27.30;37.52;101961.53;5091684;28;20036;-71
2023/05/28 08:47:26;;;;;;;7.03;3.22;;;;;;;27.63;36.59;101986.53;5091391;28;20035;-71
2023/05/28 08:49:53;;;;;;;12.30;4.43;;;;;;;27.60;37.28;101981.63;5091219;28;20056;-71
2023/05/28 08:52:19;;;;;;;9.30;3.85;;;;;;;27.91;34.47;101990.47;5092358;28;20039;-71
2023/05/28 08:54:46;;;;;;;9.18;4.38;;;;;;;27.27;34.87;101981.28;5092476;28;20055;-71
2023/05/28 08:57:11;;;;;;;11.65;3.92;;;;;;;27.19;36.87;101978.28;5092338;28;20589;-72
2023/05/28 08:59:37;;;;;;;9.43;4.32;;;;;;;26.50;36.39;101974.38;5092487;28;20047;-72
2023/05/28 09:02:03;;;;;;;13.70;4.35;;;;;;;24.77;39.10;101981.09;5091222;28;20505;-76
2023/05/28 09:04:28;;;;;;;7.22;3.75;;;;;;;23.34;41.28;101972.47;5092656;28;20114;-72
2023/05/28 09:06:54;;;;;;;10.00;4.10;;;;;;;22.57;45.22;101979.63;5092391;28;20153;-71
2023/05/28 09:09:20;;;;;;;10.73;3.70;;;;;;;21.94;46.24;101965.28;5092238;28;20036;-72
2023/05/28 09:11:45;;;;;;;11.60;4.07;;;;;;;21.52;46.13;101964.78;5090854;28;20028;-71
2023/05/28 09:14:12;;;;;;;10.93;3.80;;;;;;;21.42;48.60;101962.69;5091013;28;20079;-71
2023/05/28 09:16:44;;;;;;;11.48;3.85;;;;;;;21.37;49.03;101966.09;5092188;28;20040;-71
2023/05/28 09:19:14;;;;;;;10.25;4.28;;;;;;;21.30;49.79;101948.31;5090776;28;20077;-71
2023/05/28 09:21:52;;;;;;;10.65;4.05;;;;;;;21.29;49.32;101963.78;5090697;28;20043;-71
2023/05/28 09:24:18;;;;;;;12.73;4.28;;;;;;;21.02;50.62;101968.94;5091970;28;20093;-70
2023/05/28 09:26:43;;;;;;;11.88;4.65;;;;;;;20.94;50.64;101958.44;5090718;28;20644;-70
2023/05/28 09:29:15;;;;;;;12.93;4.88;;;;;;;20.99;49.83;101956.66;5090739;28;20873;-70
2023/05/28 09:31:40;;;;;;;10.60;4.10;;;;;;;21.10;51.76;101959.59;5090730;28;20039;-71
2023/05/28 09:34:05;;;;;;;13.35;4.50;;;;;;;21.17;51.68;101946.72;5090486;28;20613;-70
2023/05/28 09:36:31;;;;;;;8.93;4.25;;;;;;;21.34;51.81;101953.03;5090665;28;20059;-71
2023/05/28 09:38:57;;;;;;;9.07;3.97;;;;;;;21.43;52.32;101948.91;5091604;28;20024;-71
2023/05/28 09:41:24;;;;;;;12.77;5.72;;;;;;;21.37;49.41;101963.38;5091836;28;20025;-70
2023/05/28 09:44:02;;;;;;;11.38;4.45;;;;;;;21.27;50.60;101955.03;5092269;28;20020;-71
2023/05/28 09:46:34;;;;;;;8.30;3.47;;;;;;;21.33;49.46;101954.09;5090900;28;20031;-71
2023/05/28 09:49:00;;;;;;;12.98;4.00;;;;;;;21.24;48.70;101950.09;5090905;28;20036;-71
2023/05/28 09:51:31;;;;;;;9.80;3.35;;;;;;;21.11;50.19;101948.50;5090925;28;20059;-70
2023/05/28 09:54:01;;;;;;;10.02;3.45;;;;;;;21.12;47.30;101952.88;5091144;28;20039;-70
2023/05/28 09:56:31;;;;;;;8.38;3.78;;;;;;;21.08;49.36;101951.69;5089299;28;20047;-71
2023/05/28 09:58:58;;;;;;;9.88;4.35;;;;;;;20.97;48.56;101945.22;5091278;28;20035;-71
2023/05/28 10:01:38;;;;;;;11.82;3.15;;;;;;;21.07;48.96;101949.22;5089699;28;20062;-71
2023/05/28 10:04:13;;;;;;;8.13;4.10;;;;;;;21.21;48.89;101945.16;5091093;28;20386;-71
2023/05/28 10:06:42;;;;;;;6.00;3.42;;;;;;;21.32;49.31;101938.84;5090933;28;20023;-71
2023/05/28 10:09:11;;;;;;;7.30;3.20;;;;;;;21.72;48.48;101948.03;5091329;28;20089;-71
2023/05/28 10:11:51;;;;;;;10.57;3.75;;;;;;;21.87;47.86;101940.16;5090883;28;20110;-71
2023/05/28 10:14:17;;;;;;;8.57;3.45;;;;;;;21.97;47.37;101937.63;5090903;28;20068;-71
2023/05/28 10:16:43;;;;;;;10.75;4.15;;;;;;;22.03;46.22;101943.94;5091269;28;20036;-71
2023/05/28 10:19:09;;;;;;;13.60;3.55;;;;;;;21.97;45.80;101942.22;5090923;28;20040;-72
2023/05/28 10:21:36;;;;;;;11.30;3.92;;;;;;;22.05;45.58;101948.06;5090436;28;20402;-71
2023/05/28 10:24:03;;;;;;;12.18;4.45;;;;;;;22.26;47.74;101949.25;5090137;28;20597;-71
2023/05/28 10:26:29;;;;;;;12.05;4.20;;;;;;;22.24;44.22;101947.84;5089248;28;20491;-70
2023/05/28 10:28:55;;;;;;;7.15;3.25;;;;;;;22.36;45.35;101948.59;5090059;28;20526;-70
2023/05/28 10:31:22;;;;;;;8.68;3.40;;;;;;;22.45;44.96;101946.25;5090258;28;20028;-70
2023/05/28 10:33:47;;;;;;;7.93;4.03;;;;;;;22.44;43.21;101960.94;5090013;28;20035;-70
2023/05/28 10:36:14;;;;;;;8.63;3.42;;;;;;;22.41;42.84;101937.78;5089346;28;20043;-70
2023/05/28 10:38:57;;;;;;;7.00;3.38;;;;;;;22.24;44.27;101947.84;5090552;28;20032;-70
2023/05/28 10:41:24;;;;;;;8.48;3.55;;;;;;;21.98;44.55;101946.56;5090484;28;20039;-70
2023/05/28 10:43:52;;;;;;;8.32;3.55;;;;;;;21.81;42.45;101952.81;5090624;28;20031;-70
2023/05/28 10:46:25;;;;;;;4.53;3.08;;;;;;;21.86;45.76;101952.09;5090329;28;20032;-71
2023/05/28 10:49:16;;;;;;;11.40;4.07;;;;;;;21.95;45.90;101949.78;5088922;28;20092;-71
2023/05/28 10:52:01;;;;;;;8.98;3.45;;;;;;;22.13;46.18;101959.59;5090336;28;20044;-70
2023/05/28 10:54:29;;;;;;;9.20;3.88;;;;;;;22.26;45.18;101964.72;5090399;28;20027;-70
2023/05/28 10:57:18;;;;;;;10.27;3.35;;;;;;;22.33;45.23;101959.97;5090444;28;20074;-70
2023/05/28 10:59:47;;;;;;;12.32;3.40;;;;;;;22.31;44.95;101957.47;5090242;28;20042;-70
2023/05/28 11:02:25;;;;;;;7.82;3.35;;;;;;;22.34;44.72;101960.78;5090068;28;20028;-70
2023/05/28 11:05:00;;;;;;;12.73;4.85;;;;;;;22.37;45.23;101961.09;5090325;28;20031;-70
2023/05/28 11:07:42;;;;;;;8.60;3.88;;;;;;;22.30;45.28;101960.47;5089104;28;20590;-70
2023/05/28 11:10:12;;;;;;;11.18;3.58;;;;;;;22.22;44.93;101950.81;5090153;28;20032;-71
2023/05/28 11:12:39;;;;;;;12.68;3.53;;;;;;;22.24;43.80;101962.28;5089545;28;20032;-70
2023/05/28 11:15:10;;;;;;;11.20;3.50;;;;;;;22.12;45.72;101956.06;5089983;28;20050;-70